createdAt,value
2023-01-25T00:00:33.155Z,16.42
2023-01-25T00:03:00.981Z,16.55
2023-01-25T00:05:28.847Z,16.10
2023-01-25T00:07:57.243Z,16.35
2023-01-25T00:10:26.363Z,17.95
2023-01-25T00:12:54.196Z,16.95
2023-01-25T00:15:21.972Z,17.80
2023-01-25T00:17:49.813Z,18.05
2023-01-25T00:20:17.979Z,19.42
2023-01-25T00:22:45.736Z,19.00
2023-01-25T00:25:13.503Z,17.60
2023-01-25T00:27:42.712Z,15.85
2023-01-25T00:30:11.621Z,16.60
2023-01-25T00:32:49.387Z,15.82
2023-01-25T00:35:17.264Z,18.98
2023-01-25T00:37:49.775Z,19.50
2023-01-25T00:40:18.175Z,19.17
2023-01-25T00:42:47.272Z,18.65
2023-01-25T00:45:15.453Z,19.67
2023-01-25T00:47:43.444Z,18.10
2023-01-25T00:50:12.117Z,17.73
2023-01-25T00:52:40.954Z,16.73
2023-01-25T00:55:10.120Z,18.10
2023-01-25T00:57:38.038Z,16.60
2023-01-25T01:00:08.736Z,17.00
2023-01-25T01:02:36.504Z,15.50
2023-01-25T01:05:04.376Z,17.20
2023-01-25T01:07:32.205Z,16.25
2023-01-25T01:10:00.599Z,15.50
2023-01-25T01:12:28.466Z,16.10
2023-01-25T01:14:56.617Z,16.00
2023-01-25T01:17:26.053Z,16.02
2023-01-25T01:19:53.904Z,13.80
2023-01-25T01:22:21.698Z,14.85
2023-01-25T01:24:50.210Z,13.77
2023-01-25T01:27:18.066Z,14.57
2023-01-25T01:29:45.909Z,13.10
2023-01-25T01:32:13.793Z,15.20
2023-01-25T01:34:43.069Z,15.90
2023-01-25T01:37:11.093Z,14.88
2023-01-25T01:39:38.913Z,17.88
2023-01-25T01:42:06.735Z,16.45
2023-01-25T01:44:47.381Z,16.17
2023-01-25T01:47:21.055Z,14.35
2023-01-25T01:49:54.172Z,12.55
2023-01-25T01:52:27.695Z,13.05
2023-01-25T01:54:59.313Z,11.40
2023-01-25T01:57:31.185Z,12.77
2023-01-25T02:00:05.817Z,12.32
2023-01-25T02:02:33.726Z,12.13
2023-01-25T02:05:08.236Z,12.75
2023-01-25T02:07:38.038Z,11.43
2023-01-25T02:10:08.030Z,12.82
2023-01-25T02:12:37.783Z,12.10
2023-01-25T02:15:07.544Z,13.07
2023-01-25T02:17:38.310Z,12.68
2023-01-25T02:20:15.731Z,11.38
2023-01-25T02:22:48.211Z,11.93
2023-01-25T02:25:18.517Z,12.25
2023-01-25T02:27:51.993Z,11.88
2023-01-25T02:30:19.782Z,11.00
2023-01-25T02:32:47.611Z,11.98
2023-01-25T02:35:20.731Z,12.60
2023-01-25T02:37:48.998Z,12.50
2023-01-25T02:40:18.556Z,12.82
2023-01-25T02:42:46.882Z,11.43
2023-01-25T02:45:17.532Z,12.05
2023-01-25T02:47:45.391Z,10.30
2023-01-25T02:50:15.105Z,11.85
2023-01-25T02:52:43.771Z,11.43
2023-01-25T02:55:11.634Z,12.32
2023-01-25T02:57:40.889Z,12.13
2023-01-25T03:00:10.032Z,12.32
2023-01-25T03:02:38.036Z,11.95
2023-01-25T03:05:06.883Z,11.15
2023-01-25T03:07:34.836Z,12.15
2023-01-25T03:10:02.683Z,11.38
2023-01-25T03:12:30.512Z,12.05
2023-01-25T03:14:59.651Z,11.30
2023-01-25T03:17:27.440Z,12.63
2023-01-25T03:19:55.415Z,11.63
2023-01-25T03:22:23.243Z,11.30
2023-01-25T03:24:51.025Z,12.23
2023-01-25T03:27:19.239Z,11.68
2023-01-25T03:29:47.138Z,12.70
2023-01-25T03:32:16.318Z,13.30
2023-01-25T03:34:44.169Z,12.68
2023-01-25T03:37:12.064Z,12.75
2023-01-25T03:39:39.874Z,13.90
2023-01-25T03:42:08.000Z,13.98
2023-01-25T03:44:35.829Z,12.90
2023-01-25T03:47:03.740Z,14.93
2023-01-25T03:49:32.925Z,12.10
2023-01-25T03:52:00.710Z,13.13
2023-01-25T03:54:28.512Z,15.40
2023-01-25T03:56:56.317Z,14.27
2023-01-25T03:59:24.179Z,13.88
2023-01-25T04:01:52.143Z,15.57
2023-01-25T04:04:20.025Z,14.32
2023-01-25T04:06:49.219Z,13.52
2023-01-25T04:09:17.108Z,14.52
2023-01-25T04:11:44.912Z,14.65
2023-01-25T04:14:12.885Z,15.10
2023-01-25T04:16:40.727Z,12.77
2023-01-25T04:19:08.794Z,14.20
2023-01-25T04:21:36.577Z,12.82
2023-01-25T04:24:06.626Z,14.80
2023-01-25T04:26:34.441Z,14.63
2023-01-25T04:29:02.296Z,13.45
2023-01-25T04:31:30.236Z,12.73
2023-01-25T04:33:58.132Z,15.60
2023-01-25T04:36:25.912Z,15.82
2023-01-25T04:38:53.678Z,15.88
2023-01-25T04:41:26.809Z,15.65
2023-01-25T04:43:54.636Z,15.63
2023-01-25T04:46:22.449Z,15.13
2023-01-25T04:48:50.256Z,16.05
2023-01-25T04:51:18.152Z,14.00
2023-01-25T04:53:46.131Z,13.88
2023-01-25T04:56:13.925Z,14.63
2023-01-25T04:58:43.122Z,14.50
2023-01-25T05:01:11.199Z,15.77
2023-01-25T05:03:39.033Z,15.35
2023-01-25T05:06:07.278Z,14.75
2023-01-25T05:08:35.066Z,15.00
2023-01-25T05:11:02.941Z,14.55
2023-01-25T05:13:30.744Z,13.57
2023-01-25T05:15:59.866Z,16.08
2023-01-25T05:18:35.800Z,14.98
2023-01-25T05:21:30.932Z,15.15
2023-01-25T05:23:59.121Z,14.57
2023-01-25T05:26:44.460Z,14.80
2023-01-25T05:29:12.356Z,15.43
2023-01-25T05:31:41.560Z,13.13
2023-01-25T05:34:09.951Z,14.20
2023-01-25T05:36:37.807Z,14.43
2023-01-25T05:39:08.604Z,13.15
2023-01-25T05:41:36.404Z,14.02
2023-01-25T05:44:04.295Z,12.85
2023-01-25T05:46:32.089Z,13.18
2023-01-25T05:49:01.191Z,10.43
2023-01-25T05:51:31.598Z,10.68
2023-01-25T05:53:59.936Z,9.93
2023-01-25T05:56:27.739Z,10.02
2023-01-25T05:58:55.964Z,9.88
2023-01-25T06:01:24.485Z,10.75
2023-01-25T06:03:52.583Z,11.07
2023-01-25T06:06:22.153Z,11.40
2023-01-25T06:08:50.022Z,10.35
2023-01-25T06:11:20.542Z,10.70
2023-01-25T06:13:48.951Z,9.98
2023-01-25T06:16:17.534Z,9.52
2023-01-25T06:18:45.936Z,9.88
2023-01-25T06:21:13.992Z,10.18
2023-01-25T06:23:45.169Z,10.30
2023-01-25T06:26:14.983Z,7.97
2023-01-25T06:28:43.119Z,9.57
2023-01-25T06:31:13.138Z,9.70
2023-01-25T06:33:41.679Z,9.52
2023-01-25T06:36:13.289Z,8.23
2023-01-25T06:38:42.990Z,9.10
2023-01-25T06:41:12.730Z,9.80
2023-01-25T06:43:40.765Z,8.18
2023-01-25T06:46:11.935Z,8.70
2023-01-25T06:48:41.017Z,8.10
2023-01-25T06:51:10.936Z,8.60
2023-01-25T06:53:40.784Z,9.30
2023-01-25T06:56:12.277Z,9.10
2023-01-25T06:58:40.794Z,9.18
2023-01-25T07:01:13.097Z,8.80
2023-01-25T07:03:41.747Z,9.13
2023-01-25T07:06:11.376Z,9.43
2023-01-25T07:08:39.682Z,9.32
2023-01-25T07:11:13.597Z,9.75
2023-01-25T07:13:42.517Z,9.88
2023-01-25T07:16:14.242Z,9.80
2023-01-25T07:18:42.495Z,9.20
2023-01-25T07:21:12.458Z,8.90
2023-01-25T07:23:41.527Z,10.73
2023-01-25T07:26:17.645Z,9.82
2023-01-25T07:28:45.983Z,8.07
2023-01-25T07:31:14.499Z,9.05
2023-01-25T07:33:42.687Z,9.20
2023-01-25T07:36:11.747Z,9.48
2023-01-25T07:38:39.595Z,9.00
2023-01-25T07:41:07.449Z,8.90
2023-01-25T07:43:36.624Z,9.35
2023-01-25T07:46:05.732Z,8.55
2023-01-25T07:48:33.906Z,9.55
2023-01-25T07:51:22.557Z,9.23
2023-01-25T07:53:52.511Z,9.45
2023-01-25T07:56:21.462Z,9.05
2023-01-25T07:58:50.591Z,8.88
2023-01-25T08:01:20.796Z,8.85
2023-01-25T08:03:49.587Z,9.52
2023-01-25T08:06:18.086Z,8.38
2023-01-25T08:08:48.564Z,8.85
2023-01-25T08:11:18.407Z,9.60
2023-01-25T08:13:46.857Z,9.65
2023-01-25T08:16:16.833Z,9.52
2023-01-25T08:18:47.732Z,8.95
2023-01-25T08:21:15.583Z,9.10
2023-01-25T08:23:43.394Z,9.10
2023-01-25T08:26:13.336Z,9.65
2023-01-25T08:28:41.344Z,9.75
2023-01-25T08:31:11.398Z,10.80
2023-01-25T08:33:40.909Z,10.27
2023-01-25T08:36:09.515Z,10.20
2023-01-25T08:38:37.700Z,10.77
2023-01-25T08:41:07.210Z,10.63
2023-01-25T08:43:35.495Z,10.98
2023-01-25T08:46:03.987Z,10.20
2023-01-25T08:48:32.138Z,10.68
2023-01-25T08:51:01.593Z,10.45
2023-01-25T08:53:30.079Z,9.60
2023-01-25T08:55:58.166Z,10.30
2023-01-25T08:58:25.973Z,10.38
2023-01-25T09:00:53.738Z,9.85
2023-01-25T09:03:21.502Z,10.40
2023-01-25T09:05:49.301Z,10.10
2023-01-25T09:08:18.651Z,9.93
2023-01-25T09:10:46.399Z,11.52
2023-01-25T09:13:14.392Z,10.70
2023-01-25T09:15:42.154Z,11.77
2023-01-25T09:18:10.316Z,11.40
2023-01-25T09:20:40.311Z,11.88
2023-01-25T09:23:08.366Z,11.90
2023-01-25T09:25:37.474Z,12.00
2023-01-25T09:28:11.244Z,12.27
2023-01-25T09:30:47.185Z,11.90
2023-01-25T09:33:16.576Z,11.07
2023-01-25T09:35:49.227Z,12.52
2023-01-25T09:38:17.004Z,11.85
2023-01-25T09:40:57.002Z,11.95
2023-01-25T09:43:36.036Z,12.32
2023-01-25T09:46:18.414Z,11.98
2023-01-25T09:49:06.341Z,12.35
2023-01-25T09:51:47.425Z,12.02
2023-01-25T09:54:17.590Z,13.95
2023-01-25T09:56:50.409Z,12.93
2023-01-25T09:59:22.939Z,12.98
2023-01-25T10:01:54.306Z,12.93
2023-01-25T10:04:25.919Z,11.07
2023-01-25T10:07:01.586Z,12.10
2023-01-25T10:09:38.352Z,12.80
2023-01-25T10:12:16.488Z,12.60
2023-01-25T10:14:44.281Z,13.63
2023-01-25T10:17:18.239Z,13.02
2023-01-25T10:20:01.210Z,15.32
2023-01-25T10:22:33.207Z,14.18
2023-01-25T10:25:24.314Z,15.75
2023-01-25T10:28:11.547Z,17.10
2023-01-25T10:30:46.862Z,16.38
2023-01-25T10:33:18.109Z,17.40
2023-01-25T10:35:48.395Z,15.85
2023-01-25T10:38:20.937Z,15.73
2023-01-25T10:40:53.495Z,15.30
2023-01-25T10:43:23.707Z,16.55
2023-01-25T10:45:52.290Z,15.52
2023-01-25T10:48:22.862Z,18.50
2023-01-25T10:50:53.695Z,18.65
2023-01-25T10:53:36.924Z,17.13
2023-01-25T10:56:20.606Z,18.70
2023-01-25T10:58:51.615Z,19.10
2023-01-25T11:01:28.684Z,18.20
2023-01-25T11:03:57.018Z,18.83
2023-01-25T11:06:33.909Z,19.63
2023-01-25T11:09:02.034Z,17.95
2023-01-25T11:11:35.527Z,16.95
2023-01-25T11:14:17.500Z,18.45
2023-01-25T11:16:48.391Z,18.10
2023-01-25T11:19:36.077Z,19.17
2023-01-25T11:22:06.373Z,20.08
2023-01-25T11:24:36.008Z,18.80
2023-01-25T11:27:14.867Z,18.67
2023-01-25T11:29:47.014Z,18.15
2023-01-25T11:34:51.231Z,17.77
2023-01-25T11:37:36.729Z,18.30
2023-01-25T11:40:15.952Z,17.20
2023-01-25T11:42:59.982Z,17.40
2023-01-25T11:45:50.314Z,18.05
2023-01-25T11:48:31.995Z,18.85
2023-01-25T11:51:05.952Z,17.67
2023-01-25T11:53:53.266Z,16.25
2023-01-25T11:56:31.810Z,16.13
2023-01-25T11:59:10.231Z,15.95
2023-01-25T12:01:48.053Z,18.27
2023-01-25T12:05:12.593Z,16.65
2023-01-25T12:07:59.789Z,15.45
2023-01-25T12:10:36.315Z,15.38
2023-01-25T12:13:14.148Z,16.00
2023-01-25T12:15:54.268Z,15.55
2023-01-25T12:18:39.963Z,17.02
2023-01-25T12:21:22.928Z,16.05
2023-01-25T12:24:20.554Z,15.85
2023-01-25T12:26:57.235Z,16.30
2023-01-25T12:29:31.593Z,16.23
2023-01-25T12:32:04.887Z,16.58
2023-01-25T12:34:38.608Z,16.88
2023-01-25T12:37:14.366Z,17.27
2023-01-25T12:39:47.666Z,18.17
2023-01-25T12:42:19.565Z,17.88
2023-01-25T12:44:50.448Z,18.15
2023-01-25T12:47:24.508Z,17.05
2023-01-25T12:49:59.504Z,16.70
2023-01-25T12:52:32.775Z,18.25
2023-01-25T12:55:03.392Z,20.23
2023-01-25T12:57:37.920Z,19.70
2023-01-25T13:00:18.813Z,17.63
2023-01-25T13:03:07.793Z,17.83
2023-01-25T13:05:41.658Z,16.27
2023-01-25T13:08:31.111Z,17.92
2023-01-25T13:11:08.696Z,18.65
2023-01-25T13:13:36.555Z,18.33
2023-01-25T13:16:41.103Z,17.40
2023-01-25T13:19:21.000Z,18.02
2023-01-25T13:21:52.909Z,16.25
2023-01-25T13:24:23.996Z,15.95
2023-01-25T13:27:24.843Z,17.88
2023-01-25T13:30:03.291Z,16.75
2023-01-25T13:33:06.850Z,16.60
2023-01-25T13:35:43.117Z,15.80
2023-01-25T13:38:36.703Z,15.52
2023-01-25T13:41:16.953Z,15.45
2023-01-25T13:43:48.241Z,15.80
2023-01-25T13:46:19.672Z,15.90
2023-01-25T13:49:05.283Z,15.07
2023-01-25T13:51:37.607Z,16.92
2023-01-25T13:56:36.334Z,16.60
2023-01-25T13:59:04.415Z,14.82
2023-01-25T14:01:34.770Z,17.35
2023-01-25T14:04:05.210Z,16.13
2023-01-25T14:06:36.123Z,14.52
2023-01-25T14:09:13.306Z,15.73
2023-01-25T14:11:46.893Z,15.30
2023-01-25T14:14:20.850Z,15.35
2023-01-25T14:17:01.629Z,15.73
2023-01-25T14:19:31.341Z,15.73
2023-01-25T14:22:25.709Z,14.55
2023-01-25T14:25:12.717Z,15.27
2023-01-25T14:27:45.425Z,14.65
2023-01-25T14:30:22.118Z,14.13
2023-01-25T14:32:51.427Z,13.90
2023-01-25T14:35:42.895Z,16.05
2023-01-25T14:38:23.715Z,14.52
2023-01-25T14:40:56.635Z,14.60
2023-01-25T14:43:25.112Z,15.07
2023-01-25T14:45:52.965Z,15.23
2023-01-25T14:48:41.453Z,13.80
2023-01-25T14:51:26.339Z,14.88
2023-01-25T14:53:59.910Z,14.60
2023-01-25T14:56:43.541Z,13.68
2023-01-25T14:59:34.637Z,13.52
2023-01-25T15:02:05.790Z,14.60
2023-01-25T15:04:35.505Z,13.98
2023-01-25T15:07:16.669Z,13.75
2023-01-25T15:10:04.223Z,14.50
2023-01-25T15:12:33.855Z,14.73
2023-01-25T15:15:02.753Z,15.30
2023-01-25T15:17:47.395Z,14.32
2023-01-25T15:20:29.229Z,14.02
2023-01-25T15:22:58.241Z,15.38
2023-01-25T15:25:26.078Z,15.02
2023-01-25T15:27:56.348Z,15.32
2023-01-25T15:30:24.197Z,13.75
2023-01-25T15:32:52.013Z,14.35
2023-01-25T15:35:21.259Z,14.30
2023-01-25T15:37:50.129Z,14.00
2023-01-25T15:40:18.313Z,13.52
2023-01-25T15:42:46.110Z,13.93
2023-01-25T15:45:15.318Z,13.73
2023-01-25T15:47:43.096Z,13.60
2023-01-25T15:50:19.139Z,14.20
2023-01-25T15:52:48.349Z,14.10
2023-01-25T15:55:16.268Z,13.73
2023-01-25T15:57:46.830Z,13.45
2023-01-25T16:00:23.009Z,12.77
2023-01-25T16:02:50.936Z,13.80
2023-01-25T16:05:18.866Z,13.40
2023-01-25T16:07:46.934Z,14.63
2023-01-25T16:10:24.301Z,13.32
2023-01-25T16:12:52.341Z,14.15
2023-01-25T16:15:21.479Z,14.48
2023-01-25T16:17:49.261Z,13.85
2023-01-25T16:20:19.914Z,12.57
2023-01-25T16:22:48.396Z,12.57
2023-01-25T16:25:16.236Z,11.90
2023-01-25T16:27:44.076Z,12.43
2023-01-25T16:30:21.793Z,11.93
2023-01-25T16:32:52.910Z,12.05
2023-01-25T16:35:21.420Z,12.20
2023-01-25T16:37:50.635Z,12.35
2023-01-25T16:40:26.780Z,11.90
2023-01-25T16:42:54.564Z,12.43
2023-01-25T16:45:24.064Z,12.40
2023-01-25T16:47:53.440Z,11.95
2023-01-25T16:50:23.386Z,12.40
2023-01-25T16:52:53.033Z,11.27
2023-01-25T16:55:20.868Z,12.30
2023-01-25T16:57:51.686Z,11.75
2023-01-25T17:00:20.200Z,13.38
2023-01-25T17:02:58.635Z,14.60
2023-01-25T17:05:31.920Z,14.15
2023-01-25T17:07:59.765Z,12.52
2023-01-25T17:10:28.860Z,13.73
2023-01-25T17:12:56.675Z,12.55
2023-01-25T17:15:24.459Z,11.80
2023-01-25T17:17:52.217Z,12.48
2023-01-25T17:20:20.267Z,12.43
2023-01-25T17:22:51.153Z,11.45
2023-01-25T17:25:19.268Z,12.50
2023-01-25T17:27:47.089Z,11.93
2023-01-25T17:30:15.540Z,13.57
2023-01-25T17:32:43.322Z,14.27
2023-01-25T17:35:11.159Z,14.05
2023-01-25T17:37:41.035Z,13.18
2023-01-25T17:40:12.393Z,12.27
2023-01-25T17:42:40.479Z,9.43
2023-01-25T17:45:09.514Z,11.60
2023-01-25T17:47:37.473Z,12.80
2023-01-25T17:50:05.723Z,11.77
2023-01-25T17:52:33.491Z,11.43
2023-01-25T17:55:01.278Z,13.20
2023-01-25T17:57:31.622Z,12.80
2023-01-25T17:59:59.480Z,13.02
2023-01-25T18:02:27.329Z,11.73
2023-01-25T18:04:55.140Z,12.45
2023-01-25T18:07:22.903Z,13.00
2023-01-25T18:09:50.743Z,10.77
2023-01-25T18:12:20.525Z,11.38
2023-01-25T18:14:49.885Z,8.98
2023-01-25T18:17:17.797Z,9.98
2023-01-25T18:19:45.907Z,9.18
2023-01-25T18:22:14.642Z,10.32
2023-01-25T18:24:44.678Z,10.15
2023-01-25T18:27:19.666Z,9.45
2023-01-25T18:29:55.442Z,10.48
2023-01-25T18:32:23.703Z,10.55
2023-01-25T18:34:51.602Z,10.70
2023-01-25T18:37:20.744Z,9.98
2023-01-25T18:39:50.457Z,9.63
2023-01-25T18:42:18.992Z,9.60
2023-01-25T18:44:48.330Z,9.05
2023-01-25T18:47:18.886Z,10.10
2023-01-25T18:49:47.302Z,10.55
2023-01-25T18:52:16.523Z,10.82
2023-01-25T18:54:44.299Z,10.23
2023-01-25T18:57:13.186Z,10.30
2023-01-25T18:59:41.314Z,10.52
2023-01-25T19:02:11.320Z,9.85
2023-01-25T19:04:40.516Z,9.55
2023-01-25T19:07:08.442Z,8.80
2023-01-25T19:09:36.931Z,9.82
2023-01-25T19:12:05.711Z,8.13
2023-01-25T19:14:33.485Z,7.95
2023-01-25T19:17:01.316Z,8.68
2023-01-25T19:19:31.992Z,9.05
2023-01-25T19:22:01.982Z,8.90
2023-01-25T19:24:30.006Z,9.25
2023-01-25T19:26:57.887Z,9.55
2023-01-25T19:29:25.676Z,9.82
2023-01-25T19:31:53.563Z,9.85
2023-01-25T19:34:21.515Z,10.30
2023-01-25T19:36:50.568Z,9.45
2023-01-25T19:39:19.717Z,10.38
2023-01-25T19:41:47.815Z,10.77
2023-01-25T19:44:20.373Z,9.77
2023-01-25T19:46:48.265Z,10.02
2023-01-25T19:49:16.064Z,10.43
2023-01-25T19:51:48.876Z,11.30
2023-01-25T19:54:19.581Z,10.07
2023-01-25T19:56:49.489Z,11.38
2023-01-25T19:59:19.307Z,10.98
2023-01-25T20:01:47.712Z,11.35
2023-01-25T20:04:17.531Z,12.25
2023-01-25T20:06:45.472Z,12.23
2023-01-25T20:09:14.036Z,11.68
2023-01-25T20:11:43.621Z,10.65
2023-01-25T20:14:13.066Z,11.30
2023-01-25T20:16:40.938Z,10.65
2023-01-25T20:19:11.579Z,11.60
2023-01-25T20:21:39.773Z,11.60
2023-01-25T20:24:10.277Z,10.38
2023-01-25T20:26:42.476Z,8.88
2023-01-25T20:29:12.860Z,9.95
2023-01-25T20:31:42.279Z,9.48
2023-01-25T20:34:13.681Z,10.00
2023-01-25T20:36:42.319Z,9.27
2023-01-25T20:39:13.313Z,10.07
2023-01-25T20:41:41.119Z,11.57
2023-01-25T20:44:09.971Z,10.52
2023-01-25T20:46:40.887Z,10.52
2023-01-25T20:49:11.525Z,10.68
2023-01-25T20:51:39.847Z,11.55
2023-01-25T20:54:07.665Z,10.68
2023-01-25T20:56:35.955Z,11.50
2023-01-25T20:59:04.180Z,11.55
2023-01-25T21:01:36.544Z,10.82
2023-01-25T21:04:07.766Z,11.23
2023-01-25T21:06:35.919Z,11.27
2023-01-25T21:09:04.060Z,11.10
2023-01-25T21:11:31.901Z,11.95
2023-01-25T21:14:00.029Z,12.38
2023-01-25T21:16:28.188Z,12.32
2023-01-25T21:18:58.453Z,13.25
2023-01-25T21:21:29.326Z,12.23
2023-01-25T21:23:59.894Z,11.80
2023-01-25T21:26:29.445Z,11.70
2023-01-25T21:28:58.790Z,11.48
2023-01-25T21:31:28.680Z,11.32
2023-01-25T21:33:56.822Z,11.27
2023-01-25T21:36:25.025Z,11.68
2023-01-25T21:38:55.370Z,10.75
2023-01-25T21:41:25.195Z,12.13
2023-01-25T21:44:12.552Z,11.50
2023-01-25T21:46:40.667Z,11.35
2023-01-25T21:49:27.842Z,11.68
2023-01-25T21:51:58.018Z,12.45
2023-01-25T21:54:28.973Z,12.73
2023-01-25T21:56:58.787Z,12.60
2023-01-25T21:59:27.260Z,12.95
2023-01-25T22:01:55.879Z,13.00
2023-01-25T22:04:25.575Z,12.35
2023-01-25T22:06:54.368Z,12.15
2023-01-25T22:09:22.860Z,12.75
2023-01-25T22:11:53.863Z,12.13
2023-01-25T22:14:23.175Z,12.32
2023-01-25T22:16:51.405Z,11.60
2023-01-25T22:19:19.478Z,11.63
2023-01-25T22:21:47.302Z,12.10
2023-01-25T22:24:15.836Z,12.07
2023-01-25T22:26:58.606Z,11.80
2023-01-25T22:29:26.547Z,12.80
2023-01-25T22:31:54.355Z,12.43
2023-01-25T22:34:22.178Z,11.70
2023-01-25T22:36:49.966Z,11.45
2023-01-25T22:39:17.889Z,13.38
2023-01-25T22:41:45.641Z,12.38
2023-01-25T22:44:15.368Z,13.02
2023-01-25T22:46:43.216Z,12.18
2023-01-25T22:49:11.113Z,13.05
2023-01-25T22:51:38.910Z,12.13
2023-01-25T22:54:06.774Z,12.18
2023-01-25T22:56:34.928Z,12.18
2023-01-25T22:59:02.947Z,11.63
2023-01-25T23:01:33.991Z,12.40
2023-01-25T23:04:02.525Z,12.68
2023-01-25T23:06:33.967Z,11.98
2023-01-25T23:09:04.387Z,8.73
2023-01-25T23:11:35.405Z,11.25
2023-01-25T23:14:22.260Z,11.88
2023-01-25T23:16:51.405Z,11.85
2023-01-25T23:19:18.469Z,11.95
2023-01-25T23:21:46.462Z,11.57
2023-01-25T23:24:14.430Z,11.45
2023-01-25T23:26:46.233Z,10.98
2023-01-25T23:29:14.656Z,10.35
2023-01-25T23:31:42.944Z,10.95
2023-01-25T23:34:13.058Z,10.38
2023-01-25T23:36:42.198Z,10.75
2023-01-25T23:39:12.896Z,9.75
2023-01-25T23:41:41.054Z,11.25
2023-01-25T23:44:09.781Z,10.20
2023-01-25T23:46:37.734Z,11.13
2023-01-25T23:49:05.563Z,11.13
2023-01-25T23:51:34.701Z,10.05
2023-01-25T23:54:02.493Z,9.52
2023-01-25T23:56:30.368Z,10.65
2023-01-25T23:58:58.715Z,9.73
